createdAt,value
2016-05-17T00:00:29.437Z,56.15
2016-05-17T00:01:29.456Z,56.15
2016-05-17T00:02:29.475Z,56.05
2016-05-17T00:03:43.680Z,55.68
2016-05-17T00:04:29.526Z,55.29
2016-05-17T00:05:29.544Z,55.77
2016-05-17T00:06:29.563Z,55.87
2016-05-17T00:07:29.581Z,55.39
2016-05-17T00:08:29.599Z,55.68
2016-05-17T00:09:29.618Z,55.36
2016-05-17T00:10:29.636Z,55.93
2016-05-17T00:11:29.670Z,55.27
2016-05-17T00:12:29.689Z,55.65
2016-05-17T00:13:29.707Z,56.03
2016-05-17T00:15:29.743Z,55.83
2016-05-17T00:16:29.762Z,55.55
2016-05-17T00:17:29.796Z,55.65
2016-05-17T00:18:29.813Z,56.22
2016-05-17T00:19:44.021Z,56.22
2016-05-17T00:20:29.851Z,56.03
2016-05-17T00:21:29.838Z,55.87
2016-05-17T00:22:29.904Z,55.93
2016-05-17T00:23:29.921Z,56.03
2016-05-17T00:24:29.940Z,55.74
2016-05-17T00:25:29.801Z,55.46
2016-05-17T00:26:29.992Z,56.22
2016-05-17T00:27:30.010Z,55.83
2016-05-17T00:28:30.029Z,55.93
2016-05-17T00:30:29.909Z,55.87
2016-05-17T00:31:30.098Z,55.58
2016-05-17T00:32:30.102Z,55.87
2016-05-17T00:33:29.979Z,55.39
2016-05-17T00:34:30.153Z,54.53
2016-05-17T00:35:44.344Z,54.72
2016-05-17T00:37:30.209Z,54.63
2016-05-17T00:38:30.228Z,55.68
2016-05-17T00:39:30.261Z,54.44
2016-05-17T00:40:30.280Z,55.49
2016-05-17T00:41:30.297Z,55.1
2016-05-17T00:42:30.332Z,55.2
2016-05-17T00:44:30.353Z,54.63
2016-05-17T00:45:30.481Z,55.1
2016-05-17T00:46:30.405Z,55.2
2016-05-17T00:48:30.442Z,54.44
2016-05-17T00:49:30.460Z,54.82
2016-05-17T00:50:44.665Z,55.87
2016-05-17T00:52:30.530Z,55.87
2016-05-17T00:53:30.549Z,55.65
2016-05-17T00:54:30.567Z,55.77
2016-05-17T00:55:30.445Z,55.93
2016-05-17T00:56:30.620Z,55.96
2016-05-17T00:59:30.674Z,56.03
2016-05-17T01:00:30.693Z,56.41
2016-05-17T01:01:30.727Z,56.12
2016-05-17T01:02:30.745Z,56.6
2016-05-17T01:04:30.781Z,56.79
2016-05-17T01:05:30.815Z,56.7
2016-05-17T01:06:30.833Z,56.98
2016-05-17T01:07:30.853Z,56.98
2016-05-17T01:08:30.855Z,56.98
2016-05-17T01:09:30.889Z,56.7
2016-05-17T01:10:30.908Z,56.98
2016-05-17T01:11:30.925Z,56.98
2016-05-17T01:12:30.959Z,57.17
2016-05-17T01:13:30.978Z,57.74
2016-05-17T01:14:30.996Z,56.98
2016-05-17T01:15:31.014Z,56.79
2016-05-17T01:17:30.895Z,57.07
2016-05-17T01:18:30.913Z,57.07
2016-05-17T01:19:30.932Z,56.88
2016-05-17T01:20:31.122Z,57.17
2016-05-17T01:22:45.346Z,57.65
2016-05-17T01:23:31.020Z,57.45
2016-05-17T01:24:31.054Z,57.45
2016-05-17T01:25:31.229Z,58.12
2016-05-17T01:26:31.247Z,58.03
2016-05-17T01:27:31.265Z,57.65
2016-05-17T01:28:31.284Z,57.65
2016-05-17T01:29:31.301Z,57.65
2016-05-17T01:30:31.320Z,57.65
2016-05-17T01:31:31.339Z,57.36
2016-05-17T01:32:31.216Z,57.67
2016-05-17T01:33:31.391Z,57.39
2016-05-17T01:34:31.253Z,57.65
2016-05-17T01:35:31.428Z,57.45
2016-05-17T01:36:31.306Z,57.36
2016-05-17T01:37:31.480Z,57.84
2016-05-17T01:38:45.670Z,57.55
2016-05-17T01:39:31.516Z,57.17
2016-05-17T01:40:31.534Z,57.67
2016-05-17T01:41:31.553Z,57.45
2016-05-17T01:42:31.415Z,57.58
2016-05-17T01:44:31.624Z,57.17
2016-05-17T01:45:31.657Z,57.07
2016-05-17T01:47:31.678Z,57.84
2016-05-17T01:48:31.696Z,57.36
2016-05-17T01:49:31.731Z,57.84
2016-05-17T01:50:31.749Z,57.65
2016-05-17T01:51:31.768Z,57.65
2016-05-17T01:52:31.786Z,57.93
2016-05-17T01:53:31.804Z,57.55
2016-05-17T01:54:46.026Z,57.74
2016-05-17T01:55:31.856Z,57.84
2016-05-17T01:56:31.874Z,57.74
2016-05-17T01:57:31.893Z,58.03
2016-05-17T01:58:31.912Z,58.03
2016-05-17T01:59:31.929Z,58.12
2016-05-17T02:00:31.948Z,58.4
2016-05-17T02:01:31.966Z,58.59
2016-05-17T02:02:31.843Z,58.59
2016-05-17T02:04:32.036Z,58.31
2016-05-17T02:05:32.056Z,58.69
2016-05-17T02:06:32.073Z,58.79
2016-05-17T02:07:32.107Z,58.79
2016-05-17T02:08:32.126Z,58.91
2016-05-17T02:09:32.144Z,58.59
2016-05-17T02:10:46.350Z,58.79
2016-05-17T02:11:32.025Z,58.98
2016-05-17T02:12:32.042Z,59.27
2016-05-17T02:13:32.233Z,59.55
2016-05-17T02:14:32.251Z,59.64
2016-05-17T02:15:32.269Z,59.64
2016-05-17T02:16:32.131Z,59.93
2016-05-17T02:18:32.324Z,59.74
2016-05-17T02:19:32.203Z,60.21
2016-05-17T02:20:32.376Z,59.58
2016-05-17T02:22:32.413Z,59.93
2016-05-17T02:23:32.432Z,60.78
2016-05-17T02:24:32.450Z,60.78
2016-05-17T02:25:46.655Z,60.21
2016-05-17T02:26:32.502Z,60.6
2016-05-17T02:27:32.521Z,60.88
2016-05-17T02:28:32.382Z,61.07
2016-05-17T02:29:32.557Z,61.26
2016-05-17T02:30:32.419Z,61.07
2016-05-17T02:31:32.594Z,61.35
2016-05-17T02:32:32.471Z,61.64
2016-05-17T02:33:32.490Z,61.93
2016-05-17T02:34:32.664Z,61.64
2016-05-17T02:35:32.792Z,61.83
2016-05-17T02:36:32.653Z,61.55
2016-05-17T02:37:32.720Z,62.4
2016-05-17T02:38:32.815Z,62.21
2016-05-17T02:39:32.615Z,62.02
2016-05-17T02:40:32.634Z,62.21
2016-05-17T02:41:32.652Z,62.02
2016-05-17T02:42:32.826Z,62.49
2016-05-17T02:43:32.860Z,62.49
2016-05-17T02:44:32.878Z,62.3
2016-05-17T02:45:32.741Z,62.3
2016-05-17T02:46:32.916Z,62.12
2016-05-17T02:47:32.934Z,62.49
2016-05-17T02:49:32.969Z,62.59
2016-05-17T02:51:33.023Z,62.21
2016-05-17T02:52:32.885Z,62.3
2016-05-17T02:53:33.060Z,63.26
2016-05-17T02:54:33.077Z,64.4
2016-05-17T02:55:33.096Z,66.97
2016-05-17T02:56:33.114Z,67.73
2016-05-17T02:57:47.320Z,69.06
2016-05-17T02:58:33.166Z,69.63
2016-05-17T02:59:33.185Z,69.92
2016-05-17T03:00:33.219Z,70.26
2016-05-17T03:01:33.221Z,70.83
2016-05-17T03:02:33.240Z,71.31
2016-05-17T03:03:33.273Z,71.5
2016-05-17T03:04:33.292Z,71.97
2016-05-17T03:05:33.310Z,71.59
2016-05-17T03:06:33.609Z,71.41
2016-05-17T03:07:33.347Z,72.45
2016-05-17T03:08:33.209Z,72.07
2016-05-17T03:09:33.383Z,72.74
2016-05-17T03:10:33.417Z,72.07
2016-05-17T03:11:33.436Z,72.55
2016-05-17T03:12:33.454Z,73.11
2016-05-17T03:13:47.659Z,73.11
2016-05-17T03:14:33.491Z,73.3
2016-05-17T03:15:33.508Z,73.02
2016-05-17T03:16:33.528Z,72.64
2016-05-17T03:17:33.561Z,73.02
2016-05-17T03:18:33.580Z,73.88
2016-05-17T03:19:33.442Z,73.88
2016-05-17T03:20:33.616Z,74.26
2016-05-17T03:21:33.649Z,73.49
2016-05-17T03:22:33.668Z,73.97
2016-05-17T03:23:33.686Z,74.07
2016-05-17T03:24:33.549Z,73.88
2016-05-17T03:25:33.566Z,73.49
2016-05-17T03:26:33.804Z,73.88
2016-05-17T03:27:33.760Z,73.02
2016-05-17T03:28:33.779Z,73.59
2016-05-17T03:29:47.984Z,73.3
2016-05-17T03:30:33.830Z,73.97
2016-05-17T03:31:33.848Z,73.4
2016-05-17T03:32:33.868Z,73.11
2016-05-17T03:33:33.886Z,73.21
2016-05-17T03:34:33.748Z,73.21
2016-05-17T03:35:33.766Z,73.21
2016-05-17T03:36:34.112Z,73.78
2016-05-17T03:37:33.974Z,73.02
2016-05-17T03:38:33.992Z,72.83
2016-05-17T03:39:34.012Z,72.74
2016-05-17T03:40:34.045Z,72.74
2016-05-17T03:41:34.064Z,73.21
2016-05-17T03:42:34.066Z,73.02
2016-05-17T03:43:34.100Z,73.4
2016-05-17T03:44:34.118Z,73.02
2016-05-17T03:45:48.308Z,72.92
2016-05-17T03:46:34.155Z,72.74
2016-05-17T03:47:34.172Z,73.02
2016-05-17T03:48:34.192Z,72.83
2016-05-17T03:49:34.225Z,71.97
2016-05-17T03:50:34.243Z,72.16
2016-05-17T03:51:34.106Z,72.35
2016-05-17T03:52:34.280Z,72.35
2016-05-17T03:53:34.299Z,72.26
2016-05-17T03:55:34.335Z,72.07
2016-05-17T03:56:34.354Z,72.26
2016-05-17T03:57:34.388Z,71.97
2016-05-17T03:58:34.405Z,71.78
2016-05-17T03:59:34.424Z,71.02
2016-05-17T04:00:48.630Z,71.69
2016-05-17T04:01:34.476Z,70.64
2016-05-17T04:02:34.479Z,71.22
2016-05-17T04:03:34.497Z,72.07
2016-05-17T04:04:34.532Z,71.41
2016-05-17T04:05:34.550Z,71.31
2016-05-17T04:06:34.693Z,71.31
2016-05-17T04:07:34.587Z,71.25
2016-05-17T04:09:34.639Z,71.34
2016-05-17T04:10:34.656Z,71.53
2016-05-17T04:12:34.537Z,71.15
2016-05-17T04:13:34.712Z,70.97
2016-05-17T04:14:34.589Z,70.97
2016-05-17T04:15:34.764Z,71.25
2016-05-17T04:16:34.626Z,70.87
2016-05-17T04:17:34.800Z,70.97
2016-05-17T04:18:34.819Z,70.68
2016-05-17T04:19:34.680Z,70.39
2016-05-17T04:20:34.856Z,71.06
2016-05-17T04:21:34.906Z,70.68
2016-05-17T04:22:34.908Z,70.68
2016-05-17T04:23:34.927Z,70.58
2016-05-17T04:24:34.944Z,70.01
2016-05-17T04:26:34.980Z,70.77
2016-05-17T04:27:34.999Z,70.49
2016-05-17T04:28:35.018Z,70.87
2016-05-17T04:29:35.052Z,70.39
2016-05-17T04:30:35.070Z,70.1
2016-05-17T04:31:35.088Z,70.3
2016-05-17T04:32:49.294Z,69.92
2016-05-17T04:33:35.124Z,70.01
2016-05-17T04:34:35.143Z,69.73
2016-05-17T04:35:35.020Z,69.35
2016-05-17T04:36:35.040Z,69.82
2016-05-17T04:37:35.215Z,70.01
2016-05-17T04:38:35.232Z,70.39
2016-05-17T04:39:35.251Z,68.96
2016-05-17T04:40:35.268Z,69.25
2016-05-17T04:41:35.146Z,70.3
2016-05-17T04:42:35.320Z,69.63
2016-05-17T04:44:35.358Z,69.82
2016-05-17T04:45:35.376Z,69.82
2016-05-17T04:46:35.395Z,70.39
2016-05-17T04:47:35.428Z,70.77
2016-05-17T04:48:49.619Z,71.34
2016-05-17T04:49:35.464Z,71.44
2016-05-17T04:50:35.483Z,71.15
2016-05-17T04:51:35.344Z,71.72
2016-05-17T04:52:35.536Z,72.39
2016-05-17T04:53:35.554Z,71.72
2016-05-17T04:55:35.591Z,71.91
2016-05-17T04:56:35.608Z,71.91
2016-05-17T04:58:35.505Z,72.11
2016-05-17T04:59:35.663Z,72.62
2016-05-17T05:00:35.697Z,73.72
2016-05-17T05:01:35.716Z,73.34
2016-05-17T05:02:35.750Z,74.77
2016-05-17T05:03:35.752Z,74.67
2016-05-17T05:04:49.958Z,76.29
2016-05-17T05:05:35.804Z,76.01
2016-05-17T05:06:35.823Z,77.81
2016-05-17T05:07:35.840Z,77.24
2016-05-17T05:08:35.859Z,77.81
2016-05-17T05:09:35.900Z,78
2016-05-17T05:10:35.960Z,77.53
2016-05-17T05:11:35.881Z,77.91
2016-05-17T05:13:36.004Z,78.19
2016-05-17T05:14:36.207Z,78.48
2016-05-17T05:15:36.241Z,78.29
2016-05-17T05:16:36.276Z,78.72
2016-05-17T05:17:36.324Z,79.24
2016-05-17T05:18:36.202Z,78.29
2016-05-17T05:19:36.387Z,78
2016-05-17T05:20:50.598Z,78.67
2016-05-17T05:21:36.434Z,78.48
2016-05-17T05:22:36.458Z,78.19
2016-05-17T05:23:36.496Z,78.48
2016-05-17T05:24:36.519Z,78.48
2016-05-17T05:25:36.383Z,77.91
2016-05-17T05:26:36.560Z,77.53
2016-05-17T05:27:36.580Z,78.38
2016-05-17T05:28:36.600Z,77.91
2016-05-17T05:30:36.654Z,77.72
2016-05-17T05:31:36.673Z,77.81
2016-05-17T05:32:36.693Z,77.34
2016-05-17T05:33:36.728Z,77.72
2016-05-17T05:34:36.730Z,78.29
2016-05-17T05:35:50.937Z,78.53
2016-05-17T05:37:36.646Z,79.14
2016-05-17T05:38:36.821Z,78.48
2016-05-17T05:39:36.840Z,78.57
2016-05-17T05:40:36.857Z,78.19
2016-05-17T05:41:36.891Z,77.91
2016-05-17T05:42:36.910Z,77.62
2016-05-17T05:43:36.929Z,77.43
2016-05-17T05:44:36.946Z,76.76
2016-05-17T05:45:36.965Z,76.96
2016-05-17T05:46:36.999Z,76.76
2016-05-17T05:47:37.017Z,77.47
2016-05-17T05:48:37.036Z,76.04
2016-05-17T05:49:37.069Z,76.23
2016-05-17T05:50:37.087Z,76.14
2016-05-17T05:51:36.950Z,76.04
2016-05-17T05:52:37.109Z,75.57
2016-05-17T05:53:37.128Z,76.14
2016-05-17T05:55:37.179Z,75.95
2016-05-17T05:56:37.214Z,74.9
2016-05-17T05:57:37.232Z,75.04
2016-05-17T05:58:37.234Z,73.51
2016-05-17T05:59:37.112Z,73.95
2016-05-17T06:00:37.287Z,74.56
2016-05-17T06:01:37.149Z,73.1
2016-05-17T06:02:37.323Z,73.76
2016-05-17T06:03:37.358Z,73.7
2016-05-17T06:04:37.375Z,72.75
2016-05-17T06:05:37.394Z,72.08
2016-05-17T06:06:37.255Z,72.62
2016-05-17T06:07:51.618Z,72.65
2016-05-17T06:08:37.464Z,71.89
2016-05-17T06:09:37.483Z,71.8
2016-05-17T06:10:37.501Z,72.17
2016-05-17T06:11:37.519Z,71.7
2016-05-17T06:12:37.553Z,72.17
2016-05-17T06:13:37.571Z,71.7
2016-05-17T06:14:37.590Z,71.8
2016-05-17T06:15:37.624Z,72.08
2016-05-17T06:17:37.645Z,72.56
2016-05-17T06:18:37.679Z,72.75
2016-05-17T06:19:37.540Z,71.89
2016-05-17T06:20:37.716Z,71.8
2016-05-17T06:21:38.296Z,71.55
2016-05-17T06:22:37.751Z,70.94
2016-05-17T06:23:51.973Z,70.75
2016-05-17T06:24:37.804Z,70.94
2016-05-17T06:25:37.823Z,70.94
2016-05-17T06:26:37.842Z,71.32
2016-05-17T06:27:37.704Z,70.75
2016-05-17T06:28:37.892Z,71.51
2016-05-17T06:29:37.912Z,70.84
2016-05-17T06:30:37.930Z,71.22
2016-05-17T06:31:37.948Z,70.59
2016-05-17T06:32:37.983Z,70.69
2016-05-17T06:33:38.001Z,70.37
2016-05-17T06:34:38.019Z,70.65
2016-05-17T06:35:38.037Z,70.56
2016-05-17T06:36:38.181Z,70.18
2016-05-17T06:37:38.074Z,69.79
2016-05-17T06:38:38.108Z,69.83
2016-05-17T06:39:52.313Z,69.54
2016-05-17T06:40:38.144Z,69.74
2016-05-17T06:41:38.007Z,69.26
2016-05-17T06:42:38.197Z,69.07
2016-05-17T06:43:38.215Z,69.07
2016-05-17T06:45:38.252Z,69.1
2016-05-17T06:46:38.285Z,68.15
2016-05-17T06:47:38.288Z,68.3
2016-05-17T06:48:38.321Z,68.59
2016-05-17T06:49:38.356Z,69.26
2016-05-17T06:50:38.374Z,68.88
2016-05-17T06:51:38.721Z,69.35
2016-05-17T06:52:38.411Z,68.59
2016-05-17T06:53:38.429Z,68.12
2016-05-17T06:54:38.448Z,68.5
2016-05-17T06:55:52.653Z,68.12
2016-05-17T06:56:38.500Z,68.02
2016-05-17T06:57:38.533Z,68.78
2016-05-17T06:58:38.537Z,67.86
2016-05-17T06:59:38.555Z,68.05
2016-05-17T07:00:38.604Z,67.2
2016-05-17T07:01:38.606Z,66.82
2016-05-17T07:03:38.675Z,66.53
2016-05-17T07:05:38.696Z,68.05
2016-05-17T07:06:38.589Z,66.72
2016-05-17T07:07:38.733Z,66.72
2016-05-17T07:08:38.766Z,66.75
2016-05-17T07:09:38.785Z,65.61
2016-05-17T07:10:52.990Z,65.58
2016-05-17T07:11:38.821Z,66.53
2016-05-17T07:12:38.855Z,66.34
2016-05-17T07:13:38.874Z,66.05
2016-05-17T07:14:38.907Z,66.82
2016-05-17T07:15:38.910Z,66.09
2016-05-17T07:16:38.929Z,64.75
2016-05-17T07:17:38.963Z,64.75
2016-05-17T07:18:38.824Z,65.23
2016-05-17T07:19:38.999Z,63.89
2016-05-17T07:20:39.017Z,63.99
2016-05-17T07:21:39.051Z,63.6
2016-05-17T07:22:39.070Z,62.84
2016-05-17T07:23:39.103Z,62.75
2016-05-17T07:24:39.107Z,62.4
2016-05-17T07:25:39.140Z,61.16
2016-05-17T07:26:39.159Z,60.21
2016-05-17T07:27:39.177Z,61.51
2016-05-17T07:28:39.195Z,61.41
2016-05-17T07:29:39.229Z,61.32
2016-05-17T07:30:39.263Z,61.32
2016-05-17T07:31:39.281Z,61.44
2016-05-17T07:32:39.300Z,61.35
2016-05-17T07:33:39.318Z,61.35
2016-05-17T07:34:39.336Z,60.78
2016-05-17T07:35:39.355Z,60.58
2016-05-17T07:36:39.639Z,60.11
2016-05-17T07:37:39.407Z,60.02
2016-05-17T07:38:39.425Z,59.53
2016-05-17T07:39:39.459Z,60.02
2016-05-17T07:40:39.493Z,59.73
2016-05-17T07:41:39.496Z,59.63
2016-05-17T07:42:53.717Z,59.34
2016-05-17T07:43:39.532Z,59.06
2016-05-17T07:44:39.566Z,60.02
2016-05-17T07:45:39.584Z,59.44
2016-05-17T07:46:39.619Z,59.63
2016-05-17T07:47:39.638Z,59.92
2016-05-17T07:48:39.655Z,59.16
2016-05-17T07:49:39.518Z,58.68
2016-05-17T07:50:39.707Z,58.87
2016-05-17T07:51:39.757Z,58.97
2016-05-17T07:52:39.744Z,59.06
2016-05-17T07:53:39.778Z,58.33
2016-05-17T07:54:39.796Z,57.46
2016-05-17T07:55:39.814Z,57.85
2016-05-17T07:56:39.834Z,58.48
2016-05-17T07:57:39.851Z,57.92
2016-05-17T07:58:54.057Z,57.92
2016-05-17T07:59:39.904Z,57.56
2016-05-17T08:00:39.922Z,57.09
2016-05-17T08:01:39.940Z,56.99
2016-05-17T08:02:39.990Z,57.18
2016-05-17T08:03:39.992Z,56.89
2016-05-17T08:04:40.026Z,56.06
2016-05-17T08:05:40.044Z,55.68
2016-05-17T08:06:40.079Z,55.96
2016-05-17T08:07:40.081Z,55.01
2016-05-17T08:08:40.115Z,54.53
2016-05-17T08:09:40.150Z,54.82
2016-05-17T08:10:40.152Z,55.49
2016-05-17T08:11:40.170Z,54.18
2016-05-17T08:12:40.205Z,53.13
2016-05-17T08:13:40.082Z,53.7
2016-05-17T08:14:54.428Z,53.8
2016-05-17T08:15:40.274Z,53.13
2016-05-17T08:16:40.293Z,52.94
2016-05-17T08:17:40.171Z,54.18
2016-05-17T08:18:40.329Z,53.49
2016-05-17T08:19:40.363Z,53.1
2016-05-17T08:20:40.382Z,53.58
2016-05-17T08:21:40.259Z,54.25
2016-05-17T08:22:40.435Z,53.77
2016-05-17T08:23:40.452Z,54.15
2016-05-17T08:24:40.315Z,53.58
2016-05-17T08:25:40.504Z,52.81
2016-05-17T08:26:40.367Z,52.81
2016-05-17T08:27:40.542Z,53.22
2016-05-17T08:28:40.575Z,53
2016-05-17T08:29:40.593Z,53.22
2016-05-17T08:30:54.815Z,52.65
2016-05-17T08:31:40.631Z,52.46
2016-05-17T08:32:40.664Z,52.46
2016-05-17T08:33:40.542Z,53
2016-05-17T08:34:40.701Z,53.1
2016-05-17T08:35:40.735Z,54.34
2016-05-17T08:36:40.769Z,55.3
2016-05-17T08:37:40.787Z,56.73
2016-05-17T08:38:40.806Z,58.93
2016-05-17T08:39:40.824Z,59.47
2016-05-17T08:40:40.842Z,60.24
2016-05-17T08:41:40.876Z,61.38
2016-05-17T08:42:40.941Z,62.52
2016-05-17T08:43:40.928Z,62.34
2016-05-17T08:44:40.946Z,64.05
2016-05-17T08:45:55.152Z,64.12
2016-05-17T08:46:40.999Z,63.26
2016-05-17T08:47:41.017Z,63.92
2016-05-17T08:48:41.035Z,65.26
2016-05-17T08:49:41.054Z,64.5
2016-05-17T08:50:41.087Z,64.12
2016-05-17T08:51:40.965Z,64.31
2016-05-17T08:52:41.124Z,63.54
2016-05-17T08:53:41.158Z,63.54
2016-05-17T08:54:41.177Z,63.35
2016-05-17T08:55:41.195Z,62.52
2016-05-17T08:56:41.229Z,62.43
2016-05-17T08:57:41.248Z,60.27
2016-05-17T08:58:41.265Z,60.46
2016-05-17T08:59:41.299Z,59.31
2016-05-17T09:00:41.318Z,57.87
2016-05-17T09:01:41.336Z,58.54
2016-05-17T09:02:41.354Z,58.93
2016-05-17T09:03:41.372Z,57.68
2016-05-17T09:04:41.250Z,57.33
2016-05-17T09:05:41.425Z,56.67
2016-05-17T09:06:41.474Z,58.1
2016-05-17T09:07:41.320Z,55.99
2016-05-17T09:09:41.514Z,57.21
2016-05-17T09:12:41.600Z,58.36
2016-05-17T09:13:41.618Z,58.33
2016-05-17T09:14:41.481Z,59.82
2016-05-17T09:15:41.655Z,61.35
2016-05-17T09:16:41.689Z,61.35
2016-05-17T09:17:55.894Z,62.3
2016-05-17T09:18:41.725Z,61.92
2016-05-17T09:19:41.759Z,62.27
2016-05-17T09:20:41.777Z,64.18
2016-05-17T09:21:41.890Z,65.52
2016-05-17T09:22:41.971Z,66.47
2016-05-17T09:23:41.849Z,67.58
2016-05-17T09:24:41.866Z,67.71
2016-05-17T09:25:41.901Z,68.53
2016-05-17T09:26:41.919Z,69.29
2016-05-17T09:27:41.937Z,70.34
2016-05-17T09:28:41.956Z,71.3
2016-05-17T09:29:41.990Z,71.87
2016-05-17T09:30:41.851Z,72.72
2016-05-17T09:31:42.026Z,72.88
2016-05-17T09:32:42.045Z,74.4
2016-05-17T09:33:56.266Z,75.01
2016-05-17T09:34:41.940Z,75.78
2016-05-17T09:35:42.115Z,76.06
2016-05-17T09:36:42.306Z,75.05
2016-05-17T09:37:42.198Z,73.91
2016-05-17T09:38:42.186Z,74.01
2016-05-17T09:39:42.204Z,73.52
2016-05-17T09:40:42.238Z,73.81
2016-05-17T09:41:42.256Z,72.8
2016-05-17T09:42:42.290Z,71.94
2016-05-17T09:43:42.308Z,73.08
2016-05-17T09:44:42.327Z,71.08
2016-05-17T09:45:42.344Z,70.13
2016-05-17T09:46:42.379Z,70.32
2016-05-17T09:47:42.397Z,72.23
2016-05-17T09:48:42.415Z,70.13
2016-05-17T09:49:56.621Z,70.79
2016-05-17T09:50:42.468Z,71.02
2016-05-17T09:51:42.486Z,69.91
2016-05-17T09:52:42.505Z,70.01
2016-05-17T09:53:42.524Z,66.99
2016-05-17T09:55:42.575Z,67.02
2016-05-17T09:56:42.594Z,67.3
2016-05-17T09:57:42.627Z,66.63
2016-05-17T09:58:42.646Z,65.33
2016-05-17T10:00:42.698Z,63.13
2016-05-17T10:01:42.716Z,62.9
2016-05-17T10:02:42.734Z,61.41
2016-05-17T10:03:42.768Z,60.52
2016-05-17T10:04:42.787Z,61.19
2016-05-17T10:05:56.992Z,61.57
2016-05-17T10:06:42.839Z,62.59
2016-05-17T10:07:42.873Z,63.73
2016-05-17T10:08:42.876Z,63.35
2016-05-17T10:09:42.909Z,64.18
2016-05-17T10:10:42.944Z,65.61
2016-05-17T10:11:42.946Z,65.9
2016-05-17T10:12:42.981Z,66.19
2016-05-17T10:13:43.014Z,66.76
2016-05-17T10:14:43.033Z,67.01
2016-05-17T10:15:42.895Z,66.25
2016-05-17T10:16:43.069Z,67.01
2016-05-17T10:17:42.931Z,68.19
2016-05-17T10:18:43.122Z,65.61
2016-05-17T10:19:43.139Z,66.95
2016-05-17T10:20:57.346Z,65.55
2016-05-17T10:21:43.192Z,64.25
2016-05-17T10:22:43.210Z,62.62
2016-05-17T10:23:43.072Z,63.32
2016-05-17T10:24:43.262Z,61.69
2016-05-17T10:25:43.281Z,61.15
2016-05-17T10:26:43.158Z,61.34
2016-05-17T10:28:43.368Z,59.14
2016-05-17T10:29:43.385Z,59.23
2016-05-17T10:30:43.418Z,58.12
2016-05-17T10:31:43.454Z,57.92
2016-05-17T10:32:43.456Z,57.38
2016-05-17T10:33:43.474Z,54.99
2016-05-17T10:34:43.509Z,54.22
2016-05-17T10:35:43.542Z,54.67
2016-05-17T10:36:43.419Z,52.47
2016-05-17T10:37:43.438Z,52.37
2016-05-17T10:38:43.597Z,54.36
2016-05-17T10:39:43.615Z,54.19
2016-05-17T10:40:43.650Z,52.66
2016-05-17T10:41:43.668Z,53.33
2016-05-17T10:42:43.686Z,54
2016-05-17T10:45:43.772Z,52.37
2016-05-17T10:47:43.809Z,52.25
2016-05-17T10:48:43.842Z,52.75
2016-05-17T10:49:43.861Z,53.04
2016-05-17T10:50:43.880Z,52.97
2016-05-17T10:51:43.914Z,51.25
2016-05-17T10:52:58.119Z,50.1
2016-05-17T10:53:43.966Z,49.91
2016-05-17T10:54:43.827Z,50.17
2016-05-17T10:55:44.002Z,50.2
2016-05-17T10:56:44.036Z,50.2
2016-05-17T10:57:44.054Z,51.25
2016-05-17T10:59:44.107Z,50.56
2016-05-17T11:00:44.125Z,52.25
2016-05-17T11:01:44.159Z,52.83
2016-05-17T11:02:44.177Z,53.66
2016-05-17T11:03:44.211Z,54.33
2016-05-17T11:04:44.229Z,55.86
2016-05-17T11:05:44.248Z,57.01
2016-05-17T11:06:44.265Z,58.32
2016-05-17T11:07:44.300Z,59.94
2016-05-17T11:08:58.506Z,62.43
2016-05-17T11:09:44.353Z,66.66
2016-05-17T11:10:44.370Z,66.85
2016-05-17T11:11:44.389Z,68.1
2016-05-17T11:12:44.422Z,71.5
2016-05-17T11:13:44.441Z,71.59
2016-05-17T11:14:44.475Z,69.31
2016-05-17T11:16:44.527Z,70.32
2016-05-17T11:17:44.530Z,71.75
2016-05-17T11:19:44.583Z,69.4
2016-05-17T11:20:44.601Z,72.36
2016-05-17T11:21:44.493Z,69.82
2016-05-17T11:22:44.652Z,68.92
2016-05-17T11:23:44.672Z,69.24
2016-05-17T11:24:58.877Z,70.48
2016-05-17T11:25:44.724Z,69.95
2016-05-17T11:26:44.742Z,69.09
2016-05-17T11:27:44.776Z,68.8
2016-05-17T11:28:44.794Z,66.83
2016-05-17T11:29:44.827Z,65.97
2016-05-17T11:30:44.846Z,64.05
2016-05-17T11:31:44.865Z,64.91
2016-05-17T11:32:44.883Z,67.97
2016-05-17T11:34:44.935Z,61.69
2016-05-17T11:35:44.969Z,61.57
2016-05-17T11:36:45.018Z,60.99
2016-05-17T11:37:45.067Z,60.33
2016-05-17T11:38:45.040Z,62.52
2016-05-17T11:39:45.058Z,62.81
2016-05-17T11:40:59.264Z,63.29
2016-05-17T11:41:45.095Z,63.32
2016-05-17T11:42:44.972Z,60.19
2016-05-17T11:43:45.162Z,59.81
2016-05-17T11:44:45.180Z,60.55
2016-05-17T11:45:45.199Z,60.74
2016-05-17T11:46:45.233Z,61.15
2016-05-17T11:48:45.269Z,59.49
2016-05-17T11:49:45.303Z,60.45
2016-05-17T11:50:45.322Z,59.2
2016-05-17T11:51:45.371Z,59.84
2016-05-17T11:53:45.392Z,60.9
2016-05-17T11:54:45.426Z,60.23
2016-05-17T11:55:59.616Z,59.66
2016-05-17T11:56:45.463Z,60.23
2016-05-17T11:57:45.496Z,59.94
2016-05-17T11:58:45.516Z,59.94
2016-05-17T11:59:45.534Z,61.02
2016-05-17T12:00:45.567Z,57.8
2016-05-17T12:01:45.601Z,55.98
2016-05-17T12:02:45.604Z,55.98
2016-05-17T12:03:45.638Z,55.82
2016-05-17T12:04:45.656Z,56.2
2016-05-17T12:05:45.691Z,55.44
2016-05-17T12:06:45.756Z,54.79
2016-05-17T12:07:45.726Z,53.83
2016-05-17T12:08:45.745Z,54.28
2016-05-17T12:09:45.779Z,53.71
2016-05-17T12:10:45.797Z,53.91
2016-05-17T12:11:45.831Z,54.36
2016-05-17T12:12:45.850Z,55.57
2016-05-17T12:13:45.868Z,56.02
2016-05-17T12:14:45.902Z,57.71
2016-05-17T12:15:45.920Z,57.81
2016-05-17T12:16:45.939Z,58.19
2016-05-17T12:17:45.972Z,58.26
2016-05-17T12:18:45.991Z,58.83
2016-05-17T12:19:46.025Z,58.26
2016-05-17T12:20:46.044Z,57.68
2016-05-17T12:21:46.389Z,58.36
2016-05-17T12:22:46.095Z,57.11
2016-05-17T12:23:46.113Z,56.06
2016-05-17T12:24:46.132Z,56.06
2016-05-17T12:25:46.166Z,55.49
2016-05-17T12:26:46.185Z,55.87
2016-05-17T12:28:00.390Z,55.68
2016-05-17T12:28:46.221Z,54.66
2016-05-17T12:29:46.255Z,53.89
2016-05-17T12:30:46.305Z,53.99
2016-05-17T12:31:46.291Z,53.41
2016-05-17T12:32:46.326Z,54.27
2016-05-17T12:33:46.344Z,54.37
2016-05-17T12:34:46.393Z,53.16
2016-05-17T12:35:46.396Z,53.44
2016-05-17T12:37:46.292Z,51.72
2016-05-17T12:38:46.467Z,52.29
2016-05-17T12:39:46.485Z,53.34
2016-05-17T12:40:46.518Z,53.25
2016-05-17T12:41:46.537Z,52.03
2016-05-17T12:42:46.399Z,51.81
2016-05-17T12:44:00.762Z,51.27
2016-05-17T12:44:46.608Z,51.56
2016-05-17T12:45:46.642Z,52.13
2016-05-17T12:47:46.678Z,50.89
2016-05-17T12:48:46.696Z,51.27
2016-05-17T12:50:46.749Z,51.46
2016-05-17T12:51:47.002Z,51.36
2016-05-17T12:52:46.785Z,50.98
2016-05-17T12:54:46.838Z,50.62
2016-05-17T12:55:46.716Z,49.95
2016-05-17T12:56:46.891Z,49.86
2016-05-17T12:57:46.924Z,50.05
2016-05-17T12:58:46.926Z,49.57
2016-05-17T13:00:01.132Z,49.95
2016-05-17T13:00:46.979Z,49.55
2016-05-17T13:01:46.997Z,50.89
2016-05-17T13:02:47.032Z,50.52
2016-05-17T13:03:46.893Z,50.52
2016-05-17T13:04:47.083Z,49.86
2016-05-17T13:05:47.102Z,49.86
2016-05-17T13:06:47.135Z,49.57
2016-05-17T13:07:47.138Z,49.66
2016-05-17T13:08:47.172Z,49.66
2016-05-17T13:09:47.190Z,50.05
2016-05-17T13:10:47.224Z,49.66
2016-05-17T13:11:47.243Z,50.15
2016-05-17T13:12:47.261Z,49.79
2016-05-17T13:13:47.295Z,49.4
2016-05-17T13:14:47.314Z,49.11
2016-05-17T13:16:01.520Z,48.64
2016-05-17T13:16:47.366Z,48.66
2016-05-17T13:17:47.384Z,48.47
2016-05-17T13:18:47.402Z,48.57
2016-05-17T13:19:47.452Z,46.94
2016-05-17T13:20:47.455Z,48.57
2016-05-17T13:21:47.801Z,48.18
2016-05-17T13:24:47.558Z,46.75
2016-05-17T13:25:47.578Z,47.61
2016-05-17T13:26:47.596Z,46.55
2016-05-17T13:27:47.630Z,46.94
2016-05-17T13:28:47.647Z,46.84
2016-05-17T13:29:47.666Z,46.55
2016-05-17T13:31:01.871Z,45.76
2016-05-17T13:31:47.718Z,46.34
2016-05-17T13:32:47.596Z,46.62
2016-05-17T13:34:47.804Z,46.34
2016-05-17T13:35:47.823Z,46.82
2016-05-17T13:36:48.044Z,46.34
2016-05-17T13:37:47.876Z,46.53
2016-05-17T13:38:47.893Z,46.98
2016-05-17T13:39:47.912Z,46.72
2016-05-17T13:42:47.826Z,46.53
2016-05-17T13:43:48.001Z,46.15
2016-05-17T13:44:48.035Z,45.96
2016-05-17T13:45:48.053Z,46.61
2016-05-17T13:46:47.931Z,46.89
2016-05-17T13:47:48.106Z,47.27
2016-05-17T13:48:48.124Z,47.27
2016-05-17T13:49:48.158Z,47.85
2016-05-17T13:50:48.176Z,48.97
2016-05-17T13:51:48.225Z,48.97
2016-05-17T13:52:48.072Z,49.55